Terminal Aerodrome Forecast
Issued by NWS

Home | Current Version | Previous Version | Text Only | Print | Product List | Glossary On
Versions: 1 2 3 4 5 6 7 8 9 10 11 12 13 14 15 16 17 18
264
FTUS45 KRIW 220527
TAFJAC
TAF
KJAC 220527Z 2206/2306 01007KT P6SM -RA SCT014 BKN022
      TEMPO 2206/2208 5SM -RA BKN015
     FM221000 VRB05KT P6SM VCSH SCT020 BKN030
     FM221800 21010KT P6SM VCSH BKN030
     FM222200 25008KT P6SM VCSH SCT020 BKN035
     FM230200 36006KT P6SM SCT030 BKN050
      AMD LTD TO CLD VIS AND WIND=

USA.gov is the U.S. government's official web portal to all federal, state and local government web resources and services.